createdAt,value
2018-07-14T00:02:00.164Z,16.80
2018-07-14T00:04:28.371Z,16.80
2018-07-14T00:09:24.520Z,16.70
2018-07-14T00:14:20.747Z,16.70
2018-07-14T00:16:48.932Z,16.70
2018-07-14T00:21:45.029Z,16.60
2018-07-14T00:24:13.249Z,16.50
2018-07-14T00:26:41.401Z,16.50
2018-07-14T00:29:09.572Z,16.50
2018-07-14T00:31:37.768Z,16.50
2018-07-14T00:34:06.203Z,16.50
2018-07-14T00:36:34.451Z,16.40
2018-07-14T00:39:02.663Z,16.40
2018-07-14T00:41:30.828Z,16.40
2018-07-14T00:43:59.004Z,16.40
2018-07-14T00:46:27.199Z,16.30
2018-07-14T00:48:55.372Z,16.30
2018-07-14T00:51:23.560Z,16.30
2018-07-14T00:56:20.632Z,16.20
2018-07-14T01:03:44.699Z,16.20
2018-07-14T01:06:12.875Z,16.20
2018-07-14T01:08:41.059Z,16.10
2018-07-14T01:11:09.235Z,16.10
2018-07-14T01:13:37.412Z,16.10
2018-07-14T01:16:05.752Z,16.00
2018-07-14T01:18:34.051Z,16.00
2018-07-14T01:21:02.252Z,16.00
2018-07-14T01:23:30.432Z,16.00
2018-07-14T01:28:26.559Z,15.90
2018-07-14T01:30:54.719Z,15.90
2018-07-14T01:33:22.908Z,15.90
2018-07-14T01:35:51.083Z,15.90
2018-07-14T01:38:19.301Z,15.80
2018-07-14T01:40:47.481Z,15.80
2018-07-14T01:43:15.655Z,15.80
2018-07-14T01:45:43.857Z,15.80
2018-07-14T01:48:12.044Z,15.70
2018-07-14T01:50:40.219Z,15.70
2018-07-14T01:53:08.395Z,15.70
2018-07-14T01:55:36.633Z,15.70
2018-07-14T01:58:04.812Z,15.70
2018-07-14T02:00:33.019Z,15.60
2018-07-14T02:03:01.205Z,15.60
2018-07-14T02:07:57.336Z,15.60
2018-07-14T02:10:25.609Z,15.50
2018-07-14T02:12:53.789Z,15.50
2018-07-14T02:17:49.957Z,15.50
2018-07-14T02:20:18.211Z,15.50
2018-07-14T02:25:14.379Z,15.50
2018-07-14T02:27:42.567Z,15.40
2018-07-14T02:30:10.760Z,15.40
2018-07-14T02:32:38.924Z,15.40
2018-07-14T02:35:07.111Z,15.40
2018-07-14T02:37:35.288Z,15.30
2018-07-14T02:40:03.503Z,15.30
2018-07-14T02:44:59.591Z,15.30
2018-07-14T02:47:27.768Z,15.20
2018-07-14T02:49:56.027Z,15.20
2018-07-14T02:52:24.224Z,15.20
2018-07-14T02:54:52.420Z,15.20
2018-07-14T02:57:20.589Z,15.20
2018-07-14T02:59:48.850Z,15.20
2018-07-14T03:04:44.944Z,15.20
2018-07-14T03:07:13.145Z,15.10
2018-07-14T03:09:41.371Z,15.10
2018-07-14T03:12:09.796Z,15.10
2018-07-14T03:14:38.003Z,15.10
2018-07-14T03:17:06.175Z,15.10
2018-07-14T03:19:34.780Z,15.10
2018-07-14T03:24:30.938Z,15.10
2018-07-14T03:29:27.107Z,15.00
2018-07-14T03:31:55.283Z,15.00
2018-07-14T03:34:23.500Z,15.00
2018-07-14T03:36:51.695Z,15.00
2018-07-14T03:41:47.898Z,14.90
2018-07-14T03:44:16.092Z,15.00
2018-07-14T03:46:44.289Z,15.00
2018-07-14T03:51:40.408Z,14.90
2018-07-14T03:54:08.663Z,14.90
2018-07-14T03:56:36.830Z,14.90
2018-07-14T03:59:05.448Z,14.90
2018-07-14T04:01:33.640Z,14.80
2018-07-14T04:06:29.876Z,14.80
2018-07-14T04:08:58.008Z,14.80
2018-07-14T04:11:26.183Z,14.80
2018-07-14T04:13:54.364Z,14.80
2018-07-14T04:16:22.537Z,14.80
2018-07-14T04:18:50.716Z,14.80
2018-07-14T04:21:19.407Z,14.80
2018-07-14T04:23:47.579Z,14.80
2018-07-14T04:26:15.752Z,14.80
2018-07-14T04:28:43.942Z,14.80
2018-07-14T04:31:12.118Z,14.80
2018-07-14T04:36:08.297Z,14.80
2018-07-14T04:38:36.492Z,14.80
2018-07-14T04:41:04.687Z,14.80
2018-07-14T04:43:32.867Z,14.80
2018-07-14T04:46:01.055Z,14.80
2018-07-14T04:50:57.323Z,14.80
2018-07-14T04:53:25.502Z,14.80
2018-07-14T04:55:53.691Z,14.80
2018-07-14T04:58:21.868Z,14.80
2018-07-14T05:00:50.061Z,14.90
2018-07-14T05:03:18.935Z,14.90
2018-07-14T05:05:47.108Z,14.90
2018-07-14T05:08:15.301Z,14.90
2018-07-14T05:10:43.472Z,14.90
2018-07-14T05:13:11.656Z,14.90
2018-07-14T05:15:39.852Z,14.90
2018-07-14T05:18:08.036Z,14.90
2018-07-14T05:23:04.176Z,15.00
2018-07-14T05:28:00.347Z,15.00
2018-07-14T05:30:28.629Z,15.10
2018-07-14T05:32:56.904Z,15.10
2018-07-14T05:35:25.104Z,15.10
2018-07-14T05:37:53.323Z,15.10
2018-07-14T05:40:21.506Z,15.10
2018-07-14T05:42:49.699Z,15.20
2018-07-14T05:45:17.945Z,15.20
2018-07-14T05:50:14.051Z,15.30
2018-07-14T05:52:42.220Z,15.30
2018-07-14T05:55:10.422Z,15.40
2018-07-14T05:57:38.625Z,15.40
2018-07-14T06:00:07.712Z,15.50
2018-07-14T06:02:36.139Z,15.50
2018-07-14T06:05:04.339Z,15.60
2018-07-14T06:07:32.523Z,15.70
2018-07-14T06:12:28.803Z,16.30
2018-07-14T06:14:56.986Z,16.70
2018-07-14T06:17:25.231Z,17.10
2018-07-14T06:19:53.399Z,17.50
2018-07-14T06:22:21.568Z,17.90
2018-07-14T06:24:49.731Z,18.30
2018-07-14T06:29:46.713Z,19.10
2018-07-14T06:34:43.052Z,19.60
2018-07-14T06:37:11.269Z,19.70
2018-07-14T06:39:39.432Z,19.60
2018-07-14T06:42:07.615Z,19.80
2018-07-14T06:44:35.826Z,19.80
2018-07-14T06:47:03.989Z,19.70
2018-07-14T06:49:32.224Z,20.10
2018-07-14T06:52:00.388Z,20.80
2018-07-14T06:54:28.577Z,21.00
2018-07-14T06:56:56.772Z,21.10
2018-07-14T06:59:24.984Z,21.60
2018-07-14T07:04:21.143Z,21.00
2018-07-14T07:06:49.371Z,21.30
2018-07-14T07:09:17.592Z,21.50
2018-07-14T07:11:45.779Z,21.40
2018-07-14T07:14:14.059Z,22.10
2018-07-14T07:16:42.388Z,22.40
2018-07-14T07:19:10.618Z,22.60
2018-07-14T07:21:38.809Z,22.80
2018-07-14T07:24:07.027Z,23.30
2018-07-14T07:29:03.190Z,23.90
2018-07-14T07:31:31.373Z,24.40
2018-07-14T07:33:59.586Z,24.20
2018-07-14T07:36:27.756Z,23.80
2018-07-14T07:38:55.942Z,23.70
2018-07-14T07:41:24.131Z,23.50
2018-07-14T07:46:20.307Z,23.20
2018-07-14T07:48:48.477Z,23.30
2018-07-14T07:51:16.667Z,23.30
2018-07-14T07:53:44.881Z,23.50
2018-07-14T07:56:13.271Z,23.50
2018-07-14T08:01:09.631Z,23.00
2018-07-14T08:03:37.938Z,22.70
2018-07-14T08:06:06.216Z,22.40
2018-07-14T08:08:34.404Z,22.10
2018-07-14T08:11:02.585Z,22.00
2018-07-14T08:13:30.789Z,21.80
2018-07-14T08:18:26.893Z,21.90
2018-07-14T08:20:55.069Z,21.80
2018-07-14T08:23:23.257Z,21.90
2018-07-14T08:25:51.436Z,21.80
2018-07-14T08:28:19.670Z,21.80
2018-07-14T08:30:47.848Z,21.80
2018-07-14T08:33:16.081Z,21.80
2018-07-14T08:40:40.311Z,22.00
2018-07-14T08:43:08.474Z,21.80
2018-07-14T08:48:04.663Z,21.80
2018-07-14T08:50:32.895Z,21.90
2018-07-14T08:55:29.075Z,21.90
2018-07-14T08:57:57.264Z,22.00
2018-07-14T09:00:25.432Z,22.10
2018-07-14T09:02:53.619Z,22.10
2018-07-14T09:05:21.830Z,22.10
2018-07-14T09:10:17.931Z,22.30
2018-07-14T09:12:46.115Z,22.30
2018-07-14T09:15:14.313Z,22.40
2018-07-14T09:20:10.464Z,22.40
2018-07-14T09:22:38.667Z,22.50
2018-07-14T09:25:06.879Z,22.70
2018-07-14T09:27:35.058Z,22.70
2018-07-14T09:30:03.252Z,22.70
2018-07-14T09:34:59.392Z,23.00
2018-07-14T09:39:55.507Z,23.10
2018-07-14T09:42:23.711Z,23.00
2018-07-14T09:49:47.844Z,23.20
2018-07-14T09:52:16.235Z,23.10
2018-07-14T09:54:44.439Z,23.20
2018-07-14T09:57:12.631Z,23.40
2018-07-14T09:59:40.800Z,23.40
2018-07-14T10:02:09.339Z,23.40
2018-07-14T10:04:37.574Z,23.50
2018-07-14T10:07:05.921Z,23.50
2018-07-14T10:09:34.091Z,23.60
2018-07-14T10:12:02.273Z,23.70
2018-07-14T10:14:30.460Z,23.80
2018-07-14T10:16:58.656Z,23.80
2018-07-14T10:19:26.843Z,23.90
2018-07-14T10:21:55.025Z,23.90
2018-07-14T10:24:23.188Z,23.80
2018-07-14T10:26:51.363Z,23.80
2018-07-14T10:29:20.147Z,24.00
2018-07-14T10:31:48.313Z,24.20
2018-07-14T10:34:16.496Z,24.30
2018-07-14T10:36:44.681Z,24.30
2018-07-14T10:39:12.859Z,24.30
2018-07-14T10:41:41.040Z,24.50
2018-07-14T10:44:09.205Z,24.50
2018-07-14T10:46:37.445Z,24.50
2018-07-14T10:49:05.543Z,24.60
2018-07-14T10:51:33.787Z,24.60
2018-07-14T10:54:01.912Z,24.80
2018-07-14T10:56:30.104Z,24.80
2018-07-14T10:58:58.277Z,24.80
2018-07-14T11:01:26.484Z,25.00
2018-07-14T11:03:54.656Z,25.10
2018-07-14T11:06:22.831Z,25.10
2018-07-14T11:08:50.991Z,25.20
2018-07-14T11:11:19.196Z,25.30
2018-07-14T11:13:47.382Z,25.40
2018-07-14T11:16:15.588Z,25.50
2018-07-14T11:18:43.739Z,25.60
2018-07-14T11:21:11.952Z,25.60
2018-07-14T11:23:40.133Z,25.80
2018-07-14T11:26:08.302Z,25.90
2018-07-14T11:28:36.483Z,26.00
2018-07-14T11:31:04.685Z,25.90
2018-07-14T11:38:28.756Z,25.90
2018-07-14T11:40:56.988Z,26.10
2018-07-14T11:43:25.378Z,26.20
2018-07-14T11:45:53.552Z,26.20
2018-07-14T11:48:21.695Z,26.20
2018-07-14T11:50:49.892Z,26.30
2018-07-14T11:53:18.063Z,26.40
2018-07-14T11:55:46.241Z,26.50
2018-07-14T11:58:14.452Z,26.60
2018-07-14T12:00:42.638Z,26.70
2018-07-14T12:03:10.799Z,26.70
2018-07-14T12:05:38.972Z,26.70
2018-07-14T12:08:07.139Z,26.80
2018-07-14T12:10:35.319Z,26.70
2018-07-14T12:13:03.509Z,26.80
2018-07-14T12:17:59.716Z,27.00
2018-07-14T12:20:27.896Z,27.00
2018-07-14T12:22:56.080Z,27.00
2018-07-14T12:25:24.333Z,27.10
2018-07-14T12:27:52.525Z,27.20
2018-07-14T12:30:20.938Z,27.30
2018-07-14T12:32:49.011Z,27.30
2018-07-14T12:37:45.277Z,27.50
2018-07-14T12:40:13.506Z,27.40
2018-07-14T12:42:41.715Z,27.40
2018-07-14T12:45:09.892Z,27.50
2018-07-14T12:47:38.067Z,27.60
2018-07-14T12:50:06.304Z,27.60
2018-07-14T12:52:34.493Z,27.60
2018-07-14T12:57:30.623Z,27.80
2018-07-14T12:59:58.869Z,27.90
2018-07-14T13:04:54.978Z,27.90
2018-07-14T13:07:23.184Z,28.00
2018-07-14T13:09:51.360Z,28.10
2018-07-14T13:12:19.543Z,28.10
2018-07-14T13:14:47.731Z,28.10
2018-07-14T13:17:15.971Z,28.10
2018-07-14T13:19:44.261Z,28.10
2018-07-14T13:22:12.480Z,27.90
2018-07-14T13:27:08.633Z,28.00
2018-07-14T13:29:36.865Z,28.20
2018-07-14T13:32:05.070Z,28.20
2018-07-14T13:34:33.271Z,28.30
2018-07-14T13:37:01.473Z,28.30
2018-07-14T13:39:29.639Z,28.30
2018-07-14T13:41:57.809Z,28.40
2018-07-14T13:44:26.008Z,28.50
2018-07-14T13:46:54.204Z,28.50
2018-07-14T13:54:18.494Z,28.50
2018-07-14T13:56:46.687Z,28.60
2018-07-14T13:59:14.863Z,28.60
2018-07-14T14:01:43.100Z,28.60
2018-07-14T14:04:11.360Z,28.60
2018-07-14T14:06:39.575Z,28.50
2018-07-14T14:09:07.895Z,28.60
2018-07-14T14:11:36.267Z,28.70
2018-07-14T14:14:04.455Z,28.80
2018-07-14T14:16:32.644Z,28.90
2018-07-14T14:19:00.835Z,29.10
2018-07-14T14:21:29.035Z,29.00
2018-07-14T14:23:57.223Z,29.10
2018-07-14T14:26:25.406Z,29.20
2018-07-14T14:28:53.592Z,29.20
2018-07-14T14:31:21.773Z,29.20
2018-07-14T14:33:49.944Z,29.10
2018-07-14T14:36:18.178Z,29.20
2018-07-14T14:38:46.320Z,29.30
2018-07-14T14:41:14.505Z,29.40
2018-07-14T14:43:43.284Z,29.40
2018-07-14T14:46:11.503Z,29.60
2018-07-14T14:48:39.697Z,29.60
2018-07-14T14:51:07.864Z,29.70
2018-07-14T14:53:36.076Z,29.80
2018-07-14T14:56:04.311Z,29.80
2018-07-14T14:58:32.451Z,29.80
2018-07-14T15:01:00.652Z,29.80
2018-07-14T15:03:28.947Z,29.80
2018-07-14T15:05:57.228Z,29.70
2018-07-14T15:08:25.461Z,29.70
2018-07-14T15:13:21.620Z,29.90
2018-07-14T15:15:49.795Z,29.90
2018-07-14T15:18:18.813Z,29.90
2018-07-14T15:20:46.984Z,29.90
2018-07-14T15:23:15.178Z,30.00
2018-07-14T15:25:43.406Z,30.10
2018-07-14T15:30:39.716Z,30.10
2018-07-14T15:33:08.228Z,30.10
2018-07-14T15:35:36.241Z,30.10
2018-07-14T15:38:04.589Z,30.00
2018-07-14T15:40:32.752Z,30.00
2018-07-14T15:43:00.959Z,30.00
2018-07-14T15:45:29.141Z,30.20
2018-07-14T15:47:57.327Z,30.20
2018-07-14T15:50:25.508Z,30.30
2018-07-14T15:52:53.678Z,30.30
2018-07-14T15:55:21.860Z,30.40
2018-07-14T15:57:50.071Z,30.30
2018-07-14T16:00:18.329Z,30.30
2018-07-14T16:02:46.477Z,30.20
2018-07-14T16:05:14.637Z,30.00
2018-07-14T16:07:42.825Z,30.10
2018-07-14T16:10:11.000Z,30.30
2018-07-14T16:12:39.212Z,30.30
2018-07-14T16:17:35.316Z,30.30
2018-07-14T16:20:03.544Z,30.30
2018-07-14T16:22:31.733Z,30.40
2018-07-14T16:24:59.900Z,30.40
2018-07-14T16:27:28.096Z,30.50
2018-07-14T16:29:56.271Z,30.40
2018-07-14T16:32:24.528Z,30.40
2018-07-14T16:34:52.719Z,30.30
2018-07-14T16:37:21.803Z,30.20
2018-07-14T16:39:49.996Z,30.10
2018-07-14T16:42:18.236Z,30.20
2018-07-14T16:44:46.412Z,30.00
2018-07-14T16:47:14.617Z,29.90
2018-07-14T16:49:42.800Z,29.90
2018-07-14T16:52:11.000Z,30.00
2018-07-14T16:57:07.127Z,29.90
2018-07-14T16:59:35.304Z,29.90
2018-07-14T17:04:31.498Z,29.80
2018-07-14T17:06:59.611Z,29.70
2018-07-14T17:09:27.814Z,29.80
2018-07-14T17:14:23.918Z,29.70
2018-07-14T17:16:52.093Z,29.60
2018-07-14T17:19:20.276Z,29.40
2018-07-14T17:21:48.508Z,29.30
2018-07-14T17:24:16.734Z,29.10
2018-07-14T17:29:12.901Z,28.70
2018-07-14T17:31:41.088Z,28.70
2018-07-14T17:34:09.308Z,28.70
2018-07-14T17:36:37.493Z,28.70
2018-07-14T17:39:07.043Z,28.60
2018-07-14T17:41:35.230Z,28.60
2018-07-14T17:44:03.391Z,28.40
2018-07-14T17:46:31.676Z,28.40
2018-07-14T17:48:59.869Z,28.20
2018-07-14T17:51:28.057Z,28.10
2018-07-14T17:53:56.252Z,28.00
2018-07-14T17:58:52.384Z,27.70
2018-07-14T18:01:20.544Z,27.50
2018-07-14T18:03:48.719Z,27.40
2018-07-14T18:06:16.911Z,27.40
2018-07-14T18:11:13.095Z,27.20
2018-07-14T18:13:42.165Z,27.10
2018-07-14T18:18:38.286Z,26.80
2018-07-14T18:21:06.743Z,26.70
2018-07-14T18:23:34.981Z,26.80
2018-07-14T18:26:03.175Z,26.60
2018-07-14T18:28:31.346Z,26.60
2018-07-14T18:30:59.635Z,26.40
2018-07-14T18:33:27.881Z,26.30
2018-07-14T18:35:56.053Z,26.20
2018-07-14T18:38:24.238Z,26.10
2018-07-14T18:40:52.396Z,26.00
2018-07-14T18:43:20.616Z,25.70
2018-07-14T18:45:48.807Z,25.70
2018-07-14T18:48:17.033Z,25.50
2018-07-14T18:50:45.200Z,25.40
2018-07-14T18:53:13.391Z,25.30
2018-07-14T18:55:41.629Z,25.20
2018-07-14T18:58:09.889Z,25.10
2018-07-14T19:03:06.096Z,25.10
2018-07-14T19:05:34.340Z,24.90
2018-07-14T19:08:02.542Z,24.90
2018-07-14T19:10:30.724Z,24.80
2018-07-14T19:12:58.975Z,24.60
2018-07-14T19:15:27.160Z,24.60
2018-07-14T19:17:55.340Z,24.50
2018-07-14T19:20:23.513Z,24.30
2018-07-14T19:22:51.708Z,24.30
2018-07-14T19:25:20.741Z,24.20
2018-07-14T19:27:49.027Z,24.10
2018-07-14T19:30:17.373Z,23.90
2018-07-14T19:32:45.681Z,23.80
2018-07-14T19:35:13.956Z,23.70
2018-07-14T19:37:42.129Z,23.50
2018-07-14T19:40:10.341Z,23.60
2018-07-14T19:42:38.557Z,23.60
2018-07-14T19:45:06.776Z,23.50
2018-07-14T19:47:34.973Z,23.40
2018-07-14T19:50:03.193Z,23.30
2018-07-14T19:52:31.511Z,23.20
2018-07-14T19:54:59.745Z,23.20
2018-07-14T19:57:28.048Z,23.10
2018-07-14T19:59:56.424Z,23.00
2018-07-14T20:02:24.644Z,23.00
2018-07-14T20:07:20.869Z,22.80
2018-07-14T20:09:49.071Z,22.70
2018-07-14T20:12:17.340Z,22.60
2018-07-14T20:14:45.563Z,22.50
2018-07-14T20:17:13.759Z,22.50
2018-07-14T20:19:42.188Z,22.50
2018-07-14T20:22:10.375Z,22.30
2018-07-14T20:24:38.600Z,22.30
2018-07-14T20:27:06.783Z,22.30
2018-07-14T20:29:34.993Z,22.20
2018-07-14T20:32:03.280Z,22.20
2018-07-14T20:34:31.499Z,22.10
2018-07-14T20:36:59.701Z,22.10
2018-07-14T20:41:55.929Z,22.00
2018-07-14T20:46:52.089Z,21.80
2018-07-14T20:49:20.291Z,21.70
2018-07-14T20:51:48.488Z,21.60
2018-07-14T20:54:16.807Z,21.50
2018-07-14T20:59:12.980Z,21.30
2018-07-14T21:01:41.175Z,21.40
2018-07-14T21:04:09.400Z,21.40
2018-07-14T21:11:34.007Z,20.90
2018-07-14T21:16:30.191Z,20.80
2018-07-14T21:18:58.383Z,20.70
2018-07-14T21:21:26.819Z,20.70
2018-07-14T21:23:54.835Z,20.60
2018-07-14T21:26:23.044Z,20.60
2018-07-14T21:31:19.185Z,20.50
2018-07-14T21:33:47.372Z,20.50
2018-07-14T21:41:11.721Z,20.20
2018-07-14T21:43:39.922Z,20.20
2018-07-14T21:46:08.099Z,20.20
2018-07-14T21:48:36.284Z,20.00
2018-07-14T21:51:04.488Z,19.90
2018-07-14T21:53:32.681Z,19.90
2018-07-14T21:56:00.867Z,19.90
2018-07-14T21:58:29.060Z,19.90
2018-07-14T22:01:04.911Z,19.80
2018-07-14T22:03:33.860Z,19.80
2018-07-14T22:06:02.339Z,19.80
2018-07-14T22:13:26.456Z,19.70
2018-07-14T22:15:54.660Z,19.60
2018-07-14T22:18:22.819Z,19.50
2018-07-14T22:20:51.018Z,19.50
2018-07-14T22:23:19.242Z,19.50
2018-07-14T22:28:15.379Z,19.40
2018-07-14T22:33:11.504Z,19.30
2018-07-14T22:35:39.701Z,19.30
2018-07-14T22:38:08.105Z,19.30
2018-07-14T22:40:36.299Z,19.20
2018-07-14T22:43:04.496Z,19.20
2018-07-14T22:45:32.667Z,19.10
2018-07-14T22:48:00.847Z,19.10
2018-07-14T22:50:29.044Z,19.10
2018-07-14T22:55:25.353Z,19.00
2018-07-14T22:57:53.541Z,18.90
2018-07-14T23:00:21.768Z,19.00
2018-07-14T23:02:49.942Z,18.90
2018-07-14T23:05:18.136Z,18.90
2018-07-14T23:07:46.312Z,18.80
2018-07-14T23:10:14.486Z,18.80
2018-07-14T23:12:42.674Z,18.80
2018-07-14T23:15:10.856Z,18.70
2018-07-14T23:17:39.044Z,18.80
2018-07-14T23:25:03.500Z,18.60
2018-07-14T23:27:31.675Z,18.50
2018-07-14T23:29:59.828Z,18.40
2018-07-14T23:32:28.020Z,18.40
2018-07-14T23:34:56.199Z,18.40
2018-07-14T23:37:24.571Z,18.30
2018-07-14T23:39:52.745Z,18.30
2018-07-14T23:42:21.567Z,18.30
2018-07-14T23:44:49.754Z,18.20
2018-07-14T23:47:17.993Z,18.20
2018-07-14T23:49:46.155Z,18.10
2018-07-14T23:52:14.328Z,18.00
2018-07-14T23:54:42.508Z,18.00
2018-07-14T23:57:10.680Z,18.00
2018-07-14T23:59:39.052Z,18.00
